Time;durP1;ratioP1;P1;durP2;ratioP2;P2;SDS_P1;SDS_P2;PMS_P1;PMS_P2;Temp;Humidity;BMP_temperature;BMP_pressure;BME280_temperature;BME280_humidity;BME280_pressure;Samples;Min_cycle;Max_cycle;Signal;HPM_P1;HPM_P2
2023/09/21 00:00:44;;;;;;;0.70;0.70;;;;;;;17.35;100.00;97512.81;15271644;19;20014;-53
2023/09/21 00:06:13;;;;;;;1.35;0.60;;;;;;;17.36;100.00;97510.91;15259592;19;20367;-56
2023/09/21 00:11:40;;;;;;;1.15;0.70;;;;;;;17.37;100.00;97501.69;15269153;19;20475;-52
2023/09/21 00:17:05;;;;;;;1.35;0.60;;;;;;;17.38;100.00;97500.63;15263246;19;20014;-53
2023/09/21 00:22:32;;;;;;;0.93;0.70;;;;;;;17.36;100.00;97495.41;15271496;19;20031;-53
2023/09/21 00:27:58;;;;;;;0.77;0.60;;;;;;;17.33;100.00;97503.22;15266848;19;20025;-52
2023/09/21 00:33:22;;;;;;;2.33;0.60;;;;;;;17.28;100.00;97495.72;15267043;19;20014;-56
2023/09/21 00:38:51;;;;;;;2.47;0.70;;;;;;;17.23;100.00;97492.84;15255298;19;20503;-56
2023/09/21 00:44:17;;;;;;;1.38;0.80;;;;;;;17.16;100.00;97490.19;15266790;19;20010;-53
2023/09/21 00:49:44;;;;;;;0.95;0.60;;;;;;;17.08;100.00;97485.88;15267118;19;20007;-56
2023/09/21 00:55:12;;;;;;;2.95;0.60;;;;;;;17.07;100.00;97486.13;15261880;19;20495;-54
2023/09/21 01:00:41;;;;;;;1.17;0.70;;;;;;;17.06;100.00;97481.72;15278467;19;20081;-55
2023/09/21 01:06:10;;;;;;;1.00;0.60;;;;;;;16.99;100.00;97481.81;15278695;19;20094;-52
2023/09/21 01:11:39;;;;;;;0.63;0.50;;;;;;;16.96;100.00;97476.00;15272300;19;20018;-53
2023/09/21 01:17:06;;;;;;;0.82;0.60;;;;;;;16.94;100.00;97473.47;15274770;19;20039;-52
2023/09/21 01:22:33;;;;;;;1.00;0.70;;;;;;;16.98;100.00;97479.31;15280059;19;20101;-55
2023/09/21 01:28:02;;;;;;;1.23;0.68;;;;;;;16.99;100.00;97464.66;15274690;19;20341;-55
2023/09/21 01:33:27;;;;;;;1.45;0.50;;;;;;;16.98;100.00;97468.44;15278367;19;20038;-59
2023/09/21 01:38:52;;;;;;;1.20;0.50;;;;;;;16.91;100.00;97463.84;15282010;19;20017;-59
2023/09/21 01:44:21;;;;;;;0.93;0.60;;;;;;;16.87;100.00;97453.66;15272848;19;20361;-58
2023/09/21 01:49:45;;;;;;;1.25;0.60;;;;;;;16.82;100.00;97438.00;15280886;19;20010;-57
2023/09/21 01:55:11;;;;;;;1.08;0.60;;;;;;;16.76;100.00;97439.75;15273956;19;20014;-57
2023/09/21 02:00:39;;;;;;;0.70;0.50;;;;;;;16.70;100.00;97435.19;15277888;19;20026;-54
2023/09/21 02:06:04;;;;;;;1.42;0.70;;;;;;;16.64;100.00;97430.66;15273240;19;20082;-53
2023/09/21 02:11:29;;;;;;;1.67;0.70;;;;;;;16.61;100.00;97431.97;15272271;19;20014;-58
2023/09/21 02:16:57;;;;;;;0.88;0.60;;;;;;;16.58;100.00;97435.13;15267692;19;20015;-57
2023/09/21 02:22:29;;;;;;;1.38;0.63;;;;;;;16.54;100.00;97431.19;15277839;19;20016;-55
2023/09/21 02:27:55;;;;;;;2.00;0.70;;;;;;;16.51;100.00;97420.78;15270789;19;20018;-57
2023/09/21 02:33:23;;;;;;;1.40;0.60;;;;;;;16.47;100.00;97412.22;15274057;19;20010;-58
2023/09/21 02:38:49;;;;;;;0.88;0.60;;;;;;;16.46;100.00;97405.09;15278035;19;20014;-54
2023/09/21 02:44:16;;;;;;;0.82;0.57;;;;;;;16.41;100.00;97398.69;15267444;19;20010;-56
2023/09/21 02:49:45;;;;;;;1.23;0.63;;;;;;;16.40;100.00;97400.56;15271189;19;20018;-54
2023/09/21 02:55:09;;;;;;;1.48;0.70;;;;;;;16.39;100.00;97401.63;15270994;19;20024;-54
2023/09/21 03:00:39;;;;;;;0.90;0.80;;;;;;;16.46;100.00;97398.84;15276100;19;20018;-57
2023/09/21 03:06:07;;;;;;;1.00;0.60;;;;;;;16.44;100.00;97388.22;15270582;19;20058;-55
2023/09/21 03:11:33;;;;;;;1.08;0.70;;;;;;;16.49;100.00;97388.34;15273515;19;20472;-55
2023/09/21 03:16:58;;;;;;;1.17;0.80;;;;;;;16.52;100.00;97388.97;15262441;19;20018;-54
2023/09/21 03:22:33;;;;;;;0.90;0.50;;;;;;;16.54;100.00;97376.78;15265471;19;20032;-57
2023/09/21 03:27:59;;;;;;;1.17;0.65;;;;;;;16.48;100.00;97375.00;15269930;19;20086;-56
2023/09/21 03:33:25;;;;;;;0.80;0.63;;;;;;;16.45;100.00;97376.28;15270329;19;20008;-55
2023/09/21 03:38:54;;;;;;;0.85;0.85;;;;;;;16.45;100.00;97373.56;15273127;19;20046;-54
2023/09/21 03:44:19;;;;;;;0.82;0.70;;;;;;;16.42;100.00;97370.44;15269135;19;20010;-55
2023/09/21 03:49:44;;;;;;;1.48;0.63;;;;;;;16.40;100.00;97369.88;15265716;19;20015;-55
2023/09/21 03:55:15;;;;;;;2.00;0.80;;;;;;;16.37;100.00;97364.88;15264858;19;20047;-55
2023/09/21 04:00:41;;;;;;;1.95;0.70;;;;;;;16.33;100.00;97369.94;15270767;19;20014;-57
2023/09/21 04:06:10;;;;;;;0.70;0.60;;;;;;;16.28;100.00;97358.88;15265437;19;20426;-57
2023/09/21 04:11:38;;;;;;;0.95;0.75;;;;;;;16.23;100.00;97361.47;15266845;19;20018;-54
2023/09/21 04:17:02;;;;;;;1.23;0.70;;;;;;;16.18;100.00;97351.22;15265908;19;20014;-55
2023/09/21 04:22:35;;;;;;;1.60;0.80;;;;;;;16.16;100.00;97345.22;15260010;19;20014;-58
2023/09/21 04:28:05;;;;;;;1.13;0.80;;;;;;;16.14;100.00;97350.03;15262001;19;20021;-57
2023/09/21 04:33:31;;;;;;;1.00;0.80;;;;;;;16.10;100.00;97346.09;15280265;19;20042;-57
2023/09/21 04:38:59;;;;;;;1.00;0.80;;;;;;;16.11;100.00;97342.31;15299823;19;20920;-55
2023/09/21 04:44:26;;;;;;;1.33;0.77;;;;;;;16.12;100.00;97335.84;15294148;19;20046;-55
2023/09/21 04:49:53;;;;;;;1.35;0.80;;;;;;;16.09;100.00;97331.69;15299834;19;20105;-54
2023/09/21 04:55:19;;;;;;;1.25;0.70;;;;;;;16.07;100.00;97322.09;15289397;19;20014;-58
2023/09/21 05:00:49;;;;;;;1.85;0.80;;;;;;;16.04;100.00;97317.94;15292209;19;20485;-55
2023/09/21 05:06:14;;;;;;;1.42;0.80;;;;;;;16.04;100.00;97317.94;15291941;19;20109;-56
2023/09/21 05:11:41;;;;;;;1.40;0.75;;;;;;;16.05;100.00;97308.72;15297460;19;20022;-57
2023/09/21 05:17:09;;;;;;;0.95;0.80;;;;;;;16.05;100.00;97307.91;15292637;19;20090;-55
2023/09/21 05:22:42;;;;;;;1.20;0.70;;;;;;;16.05;100.00;97319.59;15294018;19;20015;-57
2023/09/21 05:28:07;;;;;;;1.33;0.90;;;;;;;16.00;100.00;97317.56;15288307;19;20014;-58
2023/09/21 05:33:34;;;;;;;1.70;0.68;;;;;;;15.96;100.00;97321.75;15293296;19;20489;-58
2023/09/21 05:39:00;;;;;;;0.70;0.60;;;;;;;15.88;100.00;97313.91;15295543;19;20079;-57
2023/09/21 05:44:25;;;;;;;0.82;0.70;;;;;;;15.85;100.00;97303.47;15288759;19;20015;-55
2023/09/21 05:49:53;;;;;;;0.70;0.70;;;;;;;15.82;100.00;97309.31;15283345;19;20485;-57
2023/09/21 05:55:12;;;;;;;1.15;0.70;;;;;;;15.80;100.00;97306.84;15277561;19;20037;-58
2023/09/21 06:00:36;;;;;;;1.60;0.70;;;;;;;15.83;100.00;97305.56;15276942;19;20022;-56
2023/09/21 06:06:06;;;;;;;1.20;0.70;;;;;;;15.87;100.00;97290.53;15273345;19;20014;-57
2023/09/21 06:11:30;;;;;;;2.30;0.93;;;;;;;15.92;100.00;97301.56;15280528;19;20085;-58
2023/09/21 06:16:56;;;;;;;2.88;1.00;;;;;;;16.01;100.00;97292.06;15276150;19;20029;-57
2023/09/21 06:22:31;;;;;;;1.05;0.70;;;;;;;16.11;100.00;97296.13;15276099;19;20867;-59
2023/09/21 06:27:56;;;;;;;1.10;0.80;;;;;;;16.23;100.00;97285.38;15273423;19;20736;-57
2023/09/21 06:33:23;;;;;;;1.77;0.75;;;;;;;16.35;100.00;97280.81;15274288;19;20064;-58
2023/09/21 06:38:51;;;;;;;0.73;0.70;;;;;;;16.52;100.00;97272.91;15274785;19;20015;-55
2023/09/21 06:44:18;;;;;;;2.75;0.70;;;;;;;16.67;100.00;97279.81;15275882;19;20049;-56
2023/09/21 06:49:43;;;;;;;1.75;0.70;;;;;;;16.85;100.00;97266.19;15278636;19;20015;-57
2023/09/21 06:55:14;;;;;;;1.08;0.85;;;;;;;17.02;100.00;97265.56;15272909;19;20018;-56
2023/09/21 07:00:39;;;;;;;0.70;0.70;;;;;;;17.16;100.00;97266.22;15256064;19;20018;-57
2023/09/21 07:06:05;;;;;;;0.90;0.70;;;;;;;17.25;100.00;97254.75;15265349;19;20131;-57
2023/09/21 07:11:35;;;;;;;2.10;0.88;;;;;;;17.39;100.00;97251.81;15277769;19;20472;-54
2023/09/21 07:16:59;;;;;;;1.38;0.60;;;;;;;17.54;100.00;97251.38;15271993;19;20384;-56
2023/09/21 07:22:31;;;;;;;1.20;0.68;;;;;;;17.68;100.00;97244.63;15273487;19;20033;-57
2023/09/21 07:28:00;;;;;;;0.77;0.70;;;;;;;17.87;100.00;97239.91;15271859;19;20022;-58
2023/09/21 07:33:26;;;;;;;1.13;0.77;;;;;;;18.06;100.00;97239.78;15273028;19;20998;-56
2023/09/21 07:38:53;;;;;;;1.52;0.75;;;;;;;18.30;100.00;97247.94;15266989;19;20030;-55
2023/09/21 07:44:22;;;;;;;2.13;0.70;;;;;;;18.46;100.00;97252.63;15272290;19;20018;-56
2023/09/21 07:49:48;;;;;;;1.85;0.70;;;;;;;18.69;100.00;97252.81;15273721;19;20018;-58
2023/09/21 07:55:14;;;;;;;1.00;0.75;;;;;;;18.88;100.00;97242.53;15271136;19;20027;-57
2023/09/21 08:00:42;;;;;;;0.85;0.70;;;;;;;19.14;100.00;97243.88;15273365;19;20010;-54
2023/09/21 08:06:08;;;;;;;2.17;0.70;;;;;;;19.35;100.00;97233.28;15264620;19;20018;-54
2023/09/21 08:11:33;;;;;;;1.65;0.60;;;;;;;19.58;100.00;97226.81;15267929;19;20328;-52
2023/09/21 08:17:02;;;;;;;1.30;0.70;;;;;;;19.71;100.00;97234.69;15269003;19;20035;-56
2023/09/21 08:22:35;;;;;;;1.75;0.63;;;;;;;19.89;100.00;97238.28;15267069;19;20073;-58
2023/09/21 08:28:03;;;;;;;1.45;0.90;;;;;;;20.04;100.00;97225.91;15268703;19;20085;-57
2023/09/21 08:33:31;;;;;;;1.27;0.80;;;;;;;20.25;100.00;97224.25;15270800;19;20015;-56
2023/09/21 08:38:56;;;;;;;0.70;0.70;;;;;;;20.42;100.00;97215.97;15262709;19;20017;-54
2023/09/21 08:44:20;;;;;;;0.73;0.50;;;;;;;20.56;100.00;97208.25;15260810;19;20021;-57
2023/09/21 08:49:49;;;;;;;0.80;0.70;;;;;;;20.75;100.00;97216.97;15270325;19;20086;-57
2023/09/21 08:55:16;;;;;;;1.25;0.75;;;;;;;20.97;100.00;97210.63;15266381;19;20035;-55
2023/09/21 09:00:44;;;;;;;2.53;0.70;;;;;;;21.16;100.00;97206.41;15268766;19;20014;-53
2023/09/21 09:06:12;;;;;;;0.63;0.60;;;;;;;21.30;100.00;97198.59;15266332;19;20022;-56
2023/09/21 09:11:39;;;;;;;3.35;0.80;;;;;;;21.44;100.00;97190.78;15261340;19;20066;-59
2023/09/21 09:17:04;;;;;;;1.42;0.70;;;;;;;21.59;100.00;97187.34;15257626;19;20485;-57
2023/09/21 09:22:39;;;;;;;2.38;0.55;;;;;;;21.78;100.00;97185.00;15269405;19;20038;-56
2023/09/21 09:28:07;;;;;;;0.82;0.63;;;;;;;21.94;100.00;97171.38;15276198;19;20041;-58
2023/09/21 09:33:33;;;;;;;1.25;0.70;;;;;;;22.07;100.00;97167.34;15282124;19;20090;-56
2023/09/21 09:39:01;;;;;;;1.55;0.60;;;;;;;22.27;100.00;97164.66;15280374;19;20086;-56
2023/09/21 09:44:30;;;;;;;1.55;0.70;;;;;;;22.48;100.00;97159.28;15273232;19;20043;-57
2023/09/21 09:49:56;;;;;;;0.50;0.50;;;;;;;22.72;100.00;97156.03;15278105;19;20022;-58
2023/09/21 09:55:25;;;;;;;5.43;0.98;;;;;;;22.89;100.00;97148.41;15277706;19;20058;-55
2023/09/21 10:00:51;;;;;;;2.70;0.65;;;;;;;23.12;100.00;97140.72;15279672;19;20037;-58
2023/09/21 10:06:19;;;;;;;0.50;0.50;;;;;;;23.38;100.00;97135.25;15276406;19;20014;-53
2023/09/21 10:11:49;;;;;;;1.27;0.60;;;;;;;23.58;100.00;97128.88;15280928;19;20014;-55
2023/09/21 10:17:15;;;;;;;1.25;0.60;;;;;;;23.82;100.00;97136.53;15266164;19;20042;-55
2023/09/21 10:22:51;;;;;;;1.92;0.50;;;;;;;23.98;100.00;97118.09;15270435;19;20018;-53
2023/09/21 10:28:39;;;;;;;1.00;0.50;;;;;;;24.19;100.00;97118.81;15277855;19;20024;-56
2023/09/21 10:34:17;;;;;;;2.47;0.60;;;;;;;24.29;100.00;97112.47;15276340;19;20018;-57
2023/09/21 10:39:50;;;;;;;0.50;0.50;;;;;;;24.43;100.00;97112.66;15273678;19;20467;-58
2023/09/21 10:45:19;;;;;;;0.77;0.60;;;;;;;24.60;100.00;97104.00;15279607;19;20092;-60
2023/09/21 10:50:46;;;;;;;0.80;0.50;;;;;;;24.74;100.00;97084.97;15274120;19;20014;-58
2023/09/21 10:56:10;;;;;;;2.55;0.60;;;;;;;24.90;100.00;97077.41;15270552;19;20022;-60
2023/09/21 11:01:39;;;;;;;0.65;0.40;;;;;;;25.24;100.00;97071.84;15275769;19;20058;-59
2023/09/21 11:07:05;;;;;;;2.28;0.70;;;;;;;25.38;100.00;97062.91;15270025;19;20024;-61
2023/09/21 11:12:29;;;;;;;0.40;0.40;;;;;;;25.61;100.00;97057.72;15276400;19;20042;-60
2023/09/21 11:17:57;;;;;;;1.25;0.50;;;;;;;25.71;100.00;97043.81;15271562;19;20098;-59
2023/09/21 11:23:29;;;;;;;1.65;0.50;;;;;;;25.75;97.81;97041.31;15266587;19;20014;-59
2023/09/21 11:28:59;;;;;;;1.90;0.70;;;;;;;25.72;95.98;97037.19;15268569;19;20038;-60
2023/09/21 11:34:29;;;;;;;0.77;0.50;;;;;;;25.82;100.00;97020.50;15270614;19;20026;-61
2023/09/21 11:39:55;;;;;;;0.90;0.50;;;;;;;25.99;100.00;97013.69;15270680;19;20498;-61
2023/09/21 11:45:27;;;;;;;1.75;0.52;;;;;;;26.26;99.54;97004.78;15269978;19;20018;-58
2023/09/21 11:50:56;;;;;;;3.55;0.45;;;;;;;26.44;89.46;97003.13;15275089;19;20361;-59
2023/09/21 11:56:21;;;;;;;1.17;0.50;;;;;;;26.52;84.32;96982.31;15258993;19;20017;-59
2023/09/21 12:01:46;;;;;;;1.70;0.50;;;;;;;26.75;90.77;96979.72;15271150;19;20418;-59
2023/09/21 12:07:15;;;;;;;1.10;0.50;;;;;;;26.98;78.15;96977.97;15267414;19;20023;-60
2023/09/21 12:12:42;;;;;;;0.60;0.40;;;;;;;27.07;79.21;96978.06;15270955;19;20020;-60
2023/09/21 12:18:07;;;;;;;1.52;0.40;;;;;;;27.15;77.09;96962.72;15267790;19;20025;-60
2023/09/21 12:23:49;;;;;;;0.50;0.50;;;;;;;27.24;76.74;96947.06;15268428;19;20018;-59
2023/09/21 12:29:17;;;;;;;0.50;0.40;;;;;;;27.33;72.38;96938.88;15266675;19;20074;-58
2023/09/21 12:34:42;;;;;;;2.58;0.60;;;;;;;27.42;75.20;96936.22;15269005;19;20014;-60
2023/09/21 12:40:13;;;;;;;2.95;0.57;;;;;;;27.53;73.62;96927.41;15268854;19;20086;-60
2023/09/21 12:45:37;;;;;;;0.60;0.40;;;;;;;27.66;75.00;96925.78;15268733;19;20543;-60
2023/09/21 12:51:03;;;;;;;1.23;0.40;;;;;;;27.87;64.69;96930.03;15269291;19;20412;-58
2023/09/21 12:56:31;;;;;;;0.73;0.35;;;;;;;27.95;66.31;96918.22;15269466;19;20046;-60
2023/09/21 13:01:56;;;;;;;2.20;0.50;;;;;;;27.83;60.48;96925.13;15275432;19;20269;-60
2023/09/21 13:07:20;;;;;;;1.95;0.40;;;;;;;27.92;62.74;96927.16;15272943;19;20034;-58
2023/09/21 13:12:47;;;;;;;0.47;0.32;;;;;;;27.94;55.89;96922.13;15285113;19;20480;-60
2023/09/21 13:18:15;;;;;;;0.80;0.47;;;;;;;28.11;57.06;96913.97;15284741;19;20018;-59
2023/09/21 13:23:53;;;;;;;0.30;0.30;;;;;;;28.37;52.58;96901.50;15286168;19;20017;-59
2023/09/21 13:29:21;;;;;;;1.55;0.30;;;;;;;28.59;51.89;96895.94;15277806;19;20102;-60
2023/09/21 13:34:47;;;;;;;2.65;0.30;;;;;;;28.63;51.86;96892.53;15275335;19;20019;-59
2023/09/21 13:40:13;;;;;;;0.50;0.30;;;;;;;28.70;52.72;96890.91;15279923;19;20010;-60
2023/09/21 13:45:41;;;;;;;0.68;0.30;;;;;;;28.94;52.61;96883.41;15282076;19;20467;-60
2023/09/21 13:51:06;;;;;;;2.17;0.38;;;;;;;29.13;50.55;96872.88;15288946;19;20070;-60
2023/09/21 13:56:31;;;;;;;1.95;0.40;;;;;;;29.33;53.08;96870.66;15279831;19;20017;-60
2023/09/21 14:01:58;;;;;;;0.68;0.38;;;;;;;29.65;50.68;96869.44;15276854;19;20895;-57
2023/09/21 14:07:24;;;;;;;1.67;0.30;;;;;;;30.24;52.07;96857.03;15270958;19;20031;-57
2023/09/21 14:12:50;;;;;;;0.30;0.20;;;;;;;30.67;50.09;96844.22;15280421;19;20015;-57
2023/09/21 14:18:18;;;;;;;1.20;0.32;;;;;;;30.89;50.15;96836.78;15278483;19;20024;-58
2023/09/21 14:23:50;;;;;;;1.17;0.40;;;;;;;30.85;47.78;96831.06;15276873;19;20077;-59
2023/09/21 14:29:15;;;;;;;1.35;0.30;;;;;;;31.12;47.97;96806.78;15282307;19;20035;-58
2023/09/21 14:34:44;;;;;;;0.75;0.45;;;;;;;31.45;48.97;96810.81;15269036;19;20029;-58
2023/09/21 14:40:09;;;;;;;0.50;0.38;;;;;;;31.52;47.37;96809.09;15271664;19;20024;-59
2023/09/21 14:45:34;;;;;;;1.25;0.30;;;;;;;31.60;47.20;96796.28;15274801;19;20018;-57
2023/09/21 14:51:01;;;;;;;0.82;0.40;;;;;;;31.73;46.41;96793.59;15270558;19;20010;-53
2023/09/21 14:56:26;;;;;;;1.38;0.40;;;;;;;31.60;47.07;96787.94;15272070;19;20018;-53
2023/09/21 15:01:52;;;;;;;1.00;0.30;;;;;;;31.38;46.82;96791.06;15276657;19;20010;-54
2023/09/21 15:07:19;;;;;;;1.27;0.45;;;;;;;31.67;46.71;96770.69;15263921;19;20014;-55
2023/09/21 15:12:44;;;;;;;0.88;0.40;;;;;;;31.60;46.63;96776.81;15272287;19;20018;-52
2023/09/21 15:18:09;;;;;;;0.60;0.35;;;;;;;31.35;46.08;96759.16;15267335;19;20010;-55
2023/09/21 15:23:45;;;;;;;1.15;0.30;;;;;;;31.56;47.10;96759.16;15269902;19;20019;-55
2023/09/21 15:29:10;;;;;;;0.93;0.40;;;;;;;31.71;47.08;96743.84;15272642;19;20482;-54
2023/09/21 15:34:34;;;;;;;0.93;0.40;;;;;;;31.73;47.17;96740.69;15270209;19;20015;-54
2023/09/21 15:40:01;;;;;;;3.13;0.50;;;;;;;31.51;47.22;96729.59;15261814;19;20021;-55
2023/09/21 15:45:27;;;;;;;0.85;0.40;;;;;;;30.96;47.81;96720.31;15264645;19;20014;-54
2023/09/21 15:50:53;;;;;;;3.65;0.50;;;;;;;30.46;48.32;96719.06;15271372;19;20024;-55
2023/09/21 15:56:20;;;;;;;0.45;0.38;;;;;;;30.04;49.45;96716.94;15268377;19;20074;-56
2023/09/21 16:01:45;;;;;;;0.65;0.45;;;;;;;29.61;50.73;96706.69;15261664;19;20046;-54
2023/09/21 16:07:10;;;;;;;1.45;0.70;;;;;;;29.24;51.44;96708.97;15264426;19;20022;-54
2023/09/21 16:12:38;;;;;;;1.20;0.73;;;;;;;28.90;52.19;96708.63;15265410;19;20017;-56
2023/09/21 16:18:03;;;;;;;1.05;0.60;;;;;;;28.55;53.11;96705.75;15257025;19;20025;-56
2023/09/21 16:23:35;;;;;;;0.75;0.63;;;;;;;28.24;53.70;96701.88;15264568;19;20025;-56
2023/09/21 16:29:04;;;;;;;1.02;0.60;;;;;;;27.90;54.36;96697.78;15268209;19;20480;-55
2023/09/21 16:34:29;;;;;;;3.70;0.60;;;;;;;27.60;55.61;96700.19;15268959;19;20038;-53
2023/09/21 16:39:54;;;;;;;2.03;0.85;;;;;;;27.27;56.68;96686.59;15270185;19;20018;-51
2023/09/21 16:45:22;;;;;;;1.38;0.68;;;;;;;27.01;57.36;96681.66;15261469;19;20337;-53
2023/09/21 16:50:47;;;;;;;1.83;0.90;;;;;;;26.73;58.48;96686.38;15266323;19;20018;-53
2023/09/21 16:56:12;;;;;;;1.23;0.88;;;;;;;26.48;59.94;96687.75;15263177;19;20035;-53
2023/09/21 17:01:41;;;;;;;1.42;0.90;;;;;;;26.23;61.46;96678.88;15265276;19;20027;-55
2023/09/21 17:07:06;;;;;;;2.53;0.90;;;;;;;26.02;62.90;96682.00;15263444;19;20025;-55
2023/09/21 17:12:31;;;;;;;1.90;1.00;;;;;;;25.84;64.48;96687.25;15264003;19;20006;-54
2023/09/21 17:17:58;;;;;;;3.50;0.93;;;;;;;25.62;66.96;96673.31;15255492;19;20474;-54
2023/09/21 17:23:29;;;;;;;3.25;0.85;;;;;;;25.48;70.12;96673.28;15256014;19;20026;-55
2023/09/21 17:28:54;;;;;;;2.20;0.88;;;;;;;25.33;73.28;96682.59;15264716;19;20495;-55
2023/09/21 17:34:21;;;;;;;1.48;0.82;;;;;;;25.19;76.49;96677.84;15264124;19;20019;-54
2023/09/21 17:39:46;;;;;;;1.48;0.90;;;;;;;25.05;80.70;96676.97;15264257;19;20028;-55
2023/09/21 17:45:10;;;;;;;3.13;1.10;;;;;;;24.91;83.04;96666.69;15278116;19;20386;-52
2023/09/21 17:50:37;;;;;;;3.58;1.00;;;;;;;24.81;86.27;96666.03;15275738;19;20363;-56
2023/09/21 17:56:17;;;;;;;3.03;1.05;;;;;;;24.65;88.48;96660.69;15270865;19;20030;-55
2023/09/21 18:01:43;;;;;;;3.85;1.10;;;;;;;24.53;93.59;96655.63;15276055;19;20360;-54
2023/09/21 18:07:11;;;;;;;2.38;0.90;;;;;;;24.45;95.05;96657.13;15275489;19;20014;-51
2023/09/21 18:12:37;;;;;;;1.60;0.90;;;;;;;24.33;98.20;96658.63;15276827;19;20018;-54
2023/09/21 18:18:01;;;;;;;4.25;0.80;;;;;;;24.22;100.00;96656.00;15276246;19;20012;-51
2023/09/21 18:23:38;;;;;;;2.70;0.90;;;;;;;24.12;100.00;96661.63;15268566;19;20598;-51
2023/09/21 18:29:08;;;;;;;1.70;0.90;;;;;;;23.99;100.00;96665.91;15269638;19;20040;-55
2023/09/21 18:34:35;;;;;;;3.78;0.90;;;;;;;23.83;100.00;96679.78;15276685;19;20614;-52
2023/09/21 18:40:06;;;;;;;2.53;0.90;;;;;;;23.74;100.00;96672.44;15271523;19;20087;-50
2023/09/21 18:45:30;;;;;;;;;;;;;;;23.57;100.00;96675.63;15273225;19;20474;-48
2023/09/21 18:50:55;;;;;;;1.85;0.90;;;;;;;23.49;100.00;96672.41;15263562;19;19990;-53
2023/09/21 18:56:27;;;;;;;2.13;1.05;;;;;;;23.43;100.00;96670.81;15264101;19;20015;-51
2023/09/21 19:02:04;;;;;;;2.63;1.10;;;;;;;23.32;100.00;96672.84;15270709;19;20097;-56
2023/09/21 19:07:29;;;;;;;4.57;1.02;;;;;;;23.28;100.00;96668.22;15268450;19;20024;-53
2023/09/21 19:12:57;;;;;;;1.98;0.85;;;;;;;23.17;100.00;96654.50;15272118;19;20472;-55
2023/09/21 19:18:23;;;;;;;2.15;1.00;;;;;;;23.11;100.00;96665.84;15273256;19;20022;-53
2023/09/21 19:23:54;;;;;;;1.15;0.88;;;;;;;23.04;100.00;96669.69;15263620;19;20854;-56
2023/09/21 19:29:21;;;;;;;1.80;0.90;;;;;;;22.97;100.00;96663.72;15270083;19;20074;-57
2023/09/21 19:34:46;;;;;;;2.92;0.88;;;;;;;22.90;100.00;96650.31;15265723;19;20074;-53
2023/09/21 19:40:12;;;;;;;1.73;1.00;;;;;;;22.81;100.00;96656.69;15267017;19;20010;-55
2023/09/21 19:45:40;;;;;;;5.13;1.10;;;;;;;22.75;100.00;96640.25;15269523;19;20375;-56
2023/09/21 19:51:05;;;;;;;2.55;0.98;;;;;;;22.64;100.00;96622.19;15274050;19;20074;-53
2023/09/21 19:56:29;;;;;;;3.97;1.10;;;;;;;22.63;100.00;96628.81;15261278;19;20018;-53
2023/09/21 20:01:57;;;;;;;2.85;1.20;;;;;;;22.61;100.00;96612.59;15270553;19;20317;-55
2023/09/21 20:07:23;;;;;;;5.40;1.10;;;;;;;22.59;100.00;96589.31;15269617;19;20015;-54
2023/09/21 20:12:49;;;;;;;2.30;1.10;;;;;;;22.57;100.00;96602.47;15274066;19;20482;-54
2023/09/21 20:18:16;;;;;;;3.28;1.50;;;;;;;22.46;100.00;96616.25;15265797;19;20024;-55
2023/09/21 20:23:41;;;;;;;1.58;1.10;;;;;;;22.43;100.00;96616.00;15268134;19;20097;-55
2023/09/21 20:29:07;;;;;;;2.60;1.20;;;;;;;22.37;100.00;96606.13;15261866;19;20359;-51
2023/09/21 20:34:35;;;;;;;2.40;1.10;;;;;;;22.30;100.00;96581.75;15262491;19;20049;-53
2023/09/21 20:40:04;;;;;;;2.42;1.10;;;;;;;22.24;100.00;96583.69;15272045;19;20018;-53
2023/09/21 20:45:31;;;;;;;2.75;1.02;;;;;;;22.20;100.00;96577.16;15268904;19;20038;-54
2023/09/21 20:50:59;;;;;;;2.28;1.23;;;;;;;22.16;100.00;96584.28;15270025;19;20022;-56
2023/09/21 20:56:25;;;;;;;3.75;1.40;;;;;;;22.13;100.00;96577.47;15264225;19;20808;-51
2023/09/21 21:01:49;;;;;;;2.78;1.20;;;;;;;22.07;100.00;96570.34;15259201;19;20038;-55
2023/09/21 21:07:17;;;;;;;3.72;1.25;;;;;;;22.05;100.00;96569.78;15258024;19;20025;-50
2023/09/21 21:12:43;;;;;;;3.63;1.08;;;;;;;22.00;100.00;96572.59;15269554;19;20484;-54
2023/09/21 21:18:08;;;;;;;2.08;1.20;;;;;;;21.99;100.00;96574.47;15274527;19;20070;-53
2023/09/21 21:23:42;;;;;;;2.33;1.20;;;;;;;21.92;100.00;96595.09;15276527;19;20014;-51
2023/09/21 21:29:07;;;;;;;3.70;1.52;;;;;;;21.88;100.00;96596.75;15282590;19;20019;-54
2023/09/21 21:34:32;;;;;;;2.25;1.20;;;;;;;21.80;100.00;96596.25;15272601;19;20036;-52
2023/09/21 21:40:00;;;;;;;2.30;1.20;;;;;;;21.79;100.00;96596.50;15275439;19;20702;-51
2023/09/21 21:45:24;;;;;;;2.20;1.13;;;;;;;21.74;100.00;96604.75;15278134;19;20031;-53
2023/09/21 21:50:50;;;;;;;2.13;1.17;;;;;;;21.73;100.00;96611.34;15282947;19;20003;-52
2023/09/21 21:56:18;;;;;;;2.70;1.10;;;;;;;21.70;100.00;96602.56;15276456;19;20566;-50
2023/09/21 22:01:43;;;;;;;3.63;1.38;;;;;;;21.65;100.00;96597.06;15278954;19;20722;-54
2023/09/21 22:07:08;;;;;;;2.70;1.30;;;;;;;21.60;100.00;96607.22;15270237;19;20039;-53
2023/09/21 22:12:36;;;;;;;2.70;1.20;;;;;;;21.52;100.00;96617.63;15275874;19;20021;-51
2023/09/21 22:18:00;;;;;;;1.63;1.00;;;;;;;21.43;100.00;96668.59;15275018;19;20414;-50
2023/09/21 22:23:32;;;;;;;2.15;1.30;;;;;;;21.29;100.00;96736.78;15277115;19;20019;-53
2023/09/21 22:28:59;;;;;;;2.60;0.60;;;;;;;21.30;100.00;96713.78;15277285;19;20041;-55
2023/09/21 22:34:24;;;;;;;5.35;0.60;;;;;;;21.17;100.00;96748.00;15278929;19;20021;-56
2023/09/21 22:39:50;;;;;;;1.73;0.40;;;;;;;20.90;100.00;96748.22;15270536;19;20020;-56
2023/09/21 22:45:19;;;;;;;1.05;0.28;;;;;;;20.33;100.00;96783.53;15267505;19;20024;-56
2023/09/21 22:50:45;;;;;;;4.13;0.30;;;;;;;20.06;100.00;96775.41;15280236;19;20011;-58
2023/09/21 22:56:11;;;;;;;2.03;0.30;;;;;;;19.68;100.00;96776.22;15273883;19;20035;-56
2023/09/21 23:01:39;;;;;;;0.30;0.15;;;;;;;19.50;100.00;96766.50;15276164;19;20027;-56
2023/09/21 23:07:04;;;;;;;0.20;0.10;;;;;;;19.23;100.00;96791.06;15269803;19;20015;-56
2023/09/21 23:12:36;;;;;;;2.60;0.10;;;;;;;19.07;100.00;96801.84;15268985;19;20081;-54
2023/09/21 23:18:04;;;;;;;1.85;0.15;;;;;;;18.83;100.00;96804.00;15264875;19;20021;-57
2023/09/21 23:23:30;;;;;;;0.65;0.10;;;;;;;18.68;100.00;96814.72;15268253;19;20016;-58
2023/09/21 23:28:55;;;;;;;0.75;0.10;;;;;;;18.50;100.00;96832.22;15274179;19;20039;-58
2023/09/21 23:34:25;;;;;;;0.55;0.10;;;;;;;18.27;100.00;96825.91;15271990;19;20035;-57
2023/09/21 23:39:50;;;;;;;0.47;0.10;;;;;;;17.85;100.00;96830.69;15269955;19;20086;-57
2023/09/21 23:45:18;;;;;;;0.50;0.10;;;;;;;17.55;100.00;96836.44;15261406;19;20022;-56
2023/09/21 23:50:46;;;;;;;1.85;0.20;;;;;;;17.35;100.00;96855.94;15266836;19;20545;-53
2023/09/21 23:56:11;;;;;;;1.85;0.20;;;;;;;17.16;100.00;96888.78;15267965;19;20106;-54
